Blountville, TN

23 10, 2014 09:02 EDT (GMT -0400)
Virginia Highlands | Change Station
CLOSE
Current Station
Airport
Location: Abingdon,
Elevation: 2070 ft
Nearby Weather Stations

Elev 2070 ft 36.69 °N, 82.03 °W | Updated 7 minutes ago

Облачно
Облачно
46 °F
Feels Like 46 °F
N
0
Вятър Променлива Вятър from Северен

Днес
High -- | Low -- °F
--% Chance of Precip.
Yesterday
High -- | Low -- °F
Precip. -- инчове
7:44 AM 6:42 PM
Намаляващ полумесец, 0% visible
Атм. налягане 30.20 инчове
Видимост 10.0 мили
Облаци Облачно 2300 ft
Точка на оросяване 40 °F
Влажност 79%
Rainfall 0.00 инчове
Snow Depth Not available.
УВ 0 out of 12
Pollen .90 out of 12
PM2.5 Добър
Flu Activity Sporadic
METAR KVJI 231255Z AUTO 00000KT 10SM OVC023 08/05 A3020 RMK AO2 T00800045

More Conditions Fewer Conditions

Атм. налягане 30.20 инчове
Видимост 10.0 мили
Облаци Облачно 2300 ft
Точка на оросяване 40 °F
Влажност 79%
Rainfall 0.00 инчове
Snow Depth Not available.
УВ 0 out of 12
Pollen .90 out of 12
PM2.5 Добър
Flu Activity Sporadic
METAR KVJI 231255Z AUTO 00000KT 10SM OVC023 08/05 A3020 RMK AO2 T00800045

More Conditions Fewer Conditions

10-Day Weather Forecast

Almanac

Астрономия

Oct. 23, 2014 Rise Set
Actual Time 7:44 AM EDT 6:42 PM EDT
Civil Twilight 7:17 AM EDT 7:09 PM EDT
Nautical Twilight 6:47 AM EDT 7:39 PM EDT
Astronomical Twilight 6:17 AM EDT 8:09 PM EDT
Moon 7:23 AM EDT 6:43 PM EDT
Length Of Visible Light 11h 51m
Продължителност на деня
10h 58m
Tomorrow will be 2m 10s shorter.
Намаляващ полумесец, 0% of the Moon is Illuminated
Днес
Намаляващ полумесец
Oct 23
New
Oct 30
Първа четвърт
Nov 6
Пълнолуние
Nov 14
Последна четвърт

Today's Extremes

State Highs State Lows

Community

WunderPhotos

Upload Photos

1,764,222 photos uploaded!

Nearby

Качество на въздуха

  Качество на въздуха AQ Index Pollutant
Yesterday Добър
PM2.5
Yesterday Добър
OZONE
Current Добър
PM2.5
Четвъртък Добър
PM2.5
Четвъртък Добър
OZONE
Петък Добър
PM2.5
Петък Добър
OZONE

Snow Depth

Station Depth Elevation
No new snow has been reported.

Earthquake Activity

City Distance Mag. Time & Date
No recent earthquake activity has been reported nearby.
Minimum magnitude displayed is 2.5.

Coastal Water Temperatures

Град Температура
No Stations Reporting

Nearby Weather Stations